»·PEaware :: UAL1619 KSAN-KSFO

UAL1619 :: KSAN-KSFO

FLIGHT INFORMATION

Flight Status: Arrived
Operator:
United Airlines
More flights by this operator :: More flights under this callsign
Pilot: Alfredo R. (12181)
Aircraft: BOEING 737-800
(B738)
More flights by this aircraft type
Origin: KSAN San Diego Intl-Lindbergh
United States
Destination: KSFO San Francisco Intl
United States
More flights between these airports :: More routes between these airports
Route: PADRZ2 IKAYE RIZIN SPLNT STOKD SERFR SERFR3
File this flight plan on PilotEdge
Remarks:
Altitude:
(Current/Filed)
26,000ft
Speed:
(Current/Filed)
425kts
Departed: 30-Oct-18 05:36 PM
Arrived: 30-Oct-18 06:49 PM
Distance/Time
Traveled:
388nm/1:13
Distance/Time
To Go:
Arrived

Flight Plot

Page will automatically refresh every two minutes.

Flight plan parsing failed; only flown route is shown


Map Options




Map Legend


Flown Route
Filed Route
Departure Airport
Arrival Airport
Navaid (VOR, NDB)
Fix

Horizontal Profiles

Position Reports

Time Latitude Longitude Heading Altitude Ground
Speed
30-Oct-18 17:14 32.734519 -117.203413 230 17ft 0kts
30-Oct-18 17:15 32.734519 -117.203413 230 17ft 0kts
30-Oct-18 17:16 32.734519 -117.203413 230 17ft 0kts
30-Oct-18 17:17 32.734519 -117.203413 230 17ft 0kts
30-Oct-18 17:18 32.734519 -117.203413 230 17ft 0kts
30-Oct-18 17:19 32.734519 -117.203413 230 17ft 0kts
30-Oct-18 17:20 32.734519 -117.203413 230 17ft 0kts
30-Oct-18 17:21 32.734519 -117.203413 230 17ft 0kts
30-Oct-18 17:22 32.734629 -117.203253 230 17ft 2kts
30-Oct-18 17:23 32.735114 -117.203097 126 17ft 2kts
30-Oct-18 17:24 32.735139 -117.203716 84 17ft 1kts
30-Oct-18 17:25 32.734925 -117.202765 103 17ft 1kts
30-Oct-18 17:26 32.735089 -117.202386 33 17ft 0kts
30-Oct-18 17:27 32.735089 -117.202386 33 17ft 0kts
30-Oct-18 17:28 32.735089 -117.202386 33 17ft 0kts
30-Oct-18 17:29 32.735132 -117.202353 33 17ft 1kts
30-Oct-18 17:30 32.735306 -117.201140 105 17ft 8kts
30-Oct-18 17:31 32.734464 -117.197634 106 17ft 13kts
30-Oct-18 17:32 32.733362 -117.193108 106 21ft 16kts
30-Oct-18 17:33 32.731923 -117.187150 105 18ft 19kts
30-Oct-18 17:34 32.730452 -117.181098 105 17ft 18kts
30-Oct-18 17:35 32.729496 -117.176792 76 22ft 4kts
30-Oct-18 17:36 32.729510 -117.176724 75 22ft 0kts
30-Oct-18 17:37 32.730348 -117.176448 289 24ft 11kts
30-Oct-18 17:38 32.735366 -117.197091 287 18ft 153kts
30-Oct-18 17:39 32.754219 -117.244904 307 1715ft 187kts
30-Oct-18 17:40 32.789191 -117.301954 307 3308ft 247kts
30-Oct-18 17:41 32.830906 -117.367101 309 5959ft 255kts
30-Oct-18 17:42 32.866922 -117.422911 310 8102ft 262kts
30-Oct-18 17:43 32.906932 -117.484996 310 10258ft 276kts
30-Oct-18 17:44 32.956389 -117.561813 309 12430ft 300kts
30-Oct-18 17:46 33.007261 -117.641133 309 15141ft 310kts
30-Oct-18 17:47 33.060150 -117.723841 310 17725ft 324kts
30-Oct-18 17:48 33.127953 -117.795263 321 20337ft 329kts
30-Oct-18 17:49 33.197958 -117.866475 320 22744ft 336kts
30-Oct-18 17:50 33.264548 -117.945849 318 24938ft 342kts
30-Oct-18 17:51 33.332721 -118.027296 318 26028ft 363kts
30-Oct-18 17:52 33.407061 -118.116238 318 26011ft 387kts
30-Oct-18 17:53 33.482595 -118.206969 318 26005ft 384kts
30-Oct-18 17:54 33.558307 -118.298078 318 26004ft 388kts
30-Oct-18 17:55 33.633833 -118.389257 318 25964ft 388kts
30-Oct-18 17:56 33.709379 -118.480621 318 25957ft 388kts
30-Oct-18 17:57 33.785013 -118.572350 319 25957ft 382kts
30-Oct-18 17:58 33.858831 -118.662125 318 25961ft 384kts
30-Oct-18 17:59 33.933574 -118.753413 318 25957ft 384kts
30-Oct-18 18:00 34.008835 -118.845493 318 25955ft 388kts
30-Oct-18 18:01 34.084064 -118.937769 318 25953ft 388kts
30-Oct-18 18:02 34.156269 -119.034222 308 25983ft 394kts
30-Oct-18 18:03 34.213452 -119.147221 307 25981ft 395kts
30-Oct-18 18:04 34.270905 -119.259293 307 25972ft 392kts
30-Oct-18 18:05 34.328406 -119.371327 307 25974ft 394kts
30-Oct-18 18:06 34.385436 -119.482309 307 25961ft 387kts
30-Oct-18 18:07 34.450889 -119.582247 319 25960ft 379kts
30-Oct-18 18:08 34.524199 -119.672721 318 25965ft 380kts
30-Oct-18 18:09 34.597868 -119.764535 318 25961ft 381kts
30-Oct-18 18:10 34.672019 -119.856820 318 25994ft 382kts
30-Oct-18 18:11 34.746183 -119.949030 318 25996ft 382kts
30-Oct-18 18:12 34.820141 -120.040908 318 25995ft 380kts
30-Oct-18 18:13 34.893895 -120.132449 318 26036ft 380kts
30-Oct-18 18:14 34.967680 -120.223957 318 26038ft 380kts
30-Oct-18 18:15 35.042706 -120.316896 318 26036ft 389kts
30-Oct-18 18:16 35.119779 -120.409226 321 26053ft 388kts
30-Oct-18 18:17 35.199074 -120.497951 321 26057ft 388kts
30-Oct-18 18:18 35.278059 -120.586852 321 26053ft 384kts
30-Oct-18 18:19 35.356323 -120.674967 320 26059ft 385kts
30-Oct-18 18:20 35.434764 -120.763297 320 26055ft 386kts
30-Oct-18 18:21 35.516378 -120.849469 325 26076ft 387kts
30-Oct-18 18:22 35.602154 -120.928937 325 26072ft 387kts
30-Oct-18 18:23 35.687436 -121.008590 325 26070ft 387kts
30-Oct-18 18:24 35.772712 -121.088359 325 26063ft 382kts
30-Oct-18 18:25 35.856108 -121.166303 325 26066ft 383kts
30-Oct-18 18:26 35.940903 -121.245511 325 26056ft 380kts
30-Oct-18 18:27 36.024250 -121.323329 325 26064ft 380kts
30-Oct-18 18:28 36.110165 -121.397787 329 26113ft 379kts
30-Oct-18 18:29 36.197855 -121.465802 329 25478ft 371kts
30-Oct-18 18:30 36.283694 -121.532844 329 23983ft 361kts
30-Oct-18 18:31 36.366057 -121.597375 329 22458ft 339kts
30-Oct-18 18:31 36.432460 -121.649516 329 21207ft 338kts
30-Oct-18 18:33 36.523536 -121.721409 328 19473ft 332kts
30-Oct-18 18:33 36.588030 -121.772449 328 18227ft 332kts
30-Oct-18 18:35 36.677084 -121.843079 329 16478ft 327kts
30-Oct-18 18:35 36.740524 -121.892294 336 15206ft 320kts
30-Oct-18 18:37 36.839453 -121.921792 347 13695ft 314kts
30-Oct-18 18:37 36.909560 -121.941261 347 12681ft 309kts
30-Oct-18 18:38 36.992164 -121.968311 343 11456ft 305kts
30-Oct-18 18:39 37.071968 -121.999739 343 10234ft 301kts
30-Oct-18 18:40 37.149838 -122.030232 343 9051ft 295kts
30-Oct-18 18:41 37.226625 -122.060335 344 7877ft 290kts
30-Oct-18 18:42 37.299893 -122.089178 345 6645ft 262kts
30-Oct-18 18:43 37.365220 -122.114987 345 6019ft 241kts
30-Oct-18 18:44 37.428220 -122.137312 347 4925ft 230kts
30-Oct-18 18:45 37.486434 -122.157147 345 4015ft 204kts
30-Oct-18 18:46 37.533595 -122.182539 321 3099ft 174kts
30-Oct-18 18:47 37.556883 -122.228284 299 2287ft 151kts
30-Oct-18 18:48 37.575939 -122.273293 297 1485ft 129kts
30-Oct-18 18:49 37.592735 -122.313223 297 821ft 130kts
30-Oct-18 18:50 37.609412 -122.352902 296 142ft 131kts
30-Oct-18 18:51 37.618865 -122.375942 281 23ft 26kts
30-Oct-18 18:52 37.618960 -122.380008 286 31ft 10kts
30-Oct-18 18:53 37.620617 -122.384471 265 30ft 8kts
30-Oct-18 18:54 37.618970 -122.385302 152 31ft 3kts
30-Oct-18 18:55 37.618808 -122.385191 154 31ft 0kts
30-Oct-18 18:56 37.618808 -122.385191 154 31ft 0kts

Navigation Log

Ident Type
Flight plan parsing failed, navigation log unavailable